sensor_id;sensor_type;location;lat;lon;timestamp;pressure;altitude;pressure_sealevel;temperature;humidity
69187;BME280;56301;56.864;60.554;2023-10-13T00:00:38;97361.47;;;26.28;48.90
69187;BME280;56301;56.864;60.554;2023-10-13T00:03:01;97368.59;;;26.29;49.05
69187;BME280;56301;56.864;60.554;2023-10-13T00:05:23;97361.72;;;26.27;48.59
69187;BME280;56301;56.864;60.554;2023-10-13T00:07:46;97362.31;;;26.29;48.49
69187;BME280;56301;56.864;60.554;2023-10-13T00:10:08;97368.78;;;26.28;49.37
69187;BME280;56301;56.864;60.554;2023-10-13T00:12:31;97365.50;;;26.26;49.57
69187;BME280;56301;56.864;60.554;2023-10-13T00:14:53;97367.72;;;26.29;49.28
69187;BME280;56301;56.864;60.554;2023-10-13T00:17:16;97352.78;;;26.26;48.53
69187;BME280;56301;56.864;60.554;2023-10-13T00:19:38;97358.78;;;26.28;48.48
69187;BME280;56301;56.864;60.554;2023-10-13T00:22:01;97366.69;;;26.30;48.35
69187;BME280;56301;56.864;60.554;2023-10-13T00:24:23;97352.31;;;26.29;48.35
69187;BME280;56301;56.864;60.554;2023-10-13T00:26:45;97348.38;;;26.25;48.70
69187;BME280;56301;56.864;60.554;2023-10-13T00:29:08;97347.94;;;26.28;49.14
69187;BME280;56301;56.864;60.554;2023-10-13T00:31:30;97345.66;;;26.25;49.39
69187;BME280;56301;56.864;60.554;2023-10-13T00:33:53;97359.59;;;26.29;48.84
69187;BME280;56301;56.864;60.554;2023-10-13T00:36:16;97347.94;;;26.28;48.97
69187;BME280;56301;56.864;60.554;2023-10-13T00:38:39;97353.34;;;26.28;49.09
69187;BME280;56301;56.864;60.554;2023-10-13T00:41:01;97350.88;;;26.27;48.93
69187;BME280;56301;56.864;60.554;2023-10-13T00:43:24;97356.06;;;26.28;48.84
69187;BME280;56301;56.864;60.554;2023-10-13T00:45:50;97348.16;;;26.27;48.49
69187;BME280;56301;56.864;60.554;2023-10-13T00:48:13;97347.09;;;26.28;49.05
69187;BME280;56301;56.864;60.554;2023-10-13T00:50:36;97359.59;;;26.29;48.57
69187;BME280;56301;56.864;60.554;2023-10-13T00:52:58;97347.09;;;26.28;48.24
69187;BME280;56301;56.864;60.554;2023-10-13T00:55:21;97347.56;;;26.25;49.81
69187;BME280;56301;56.864;60.554;2023-10-13T00:57:44;97342.59;;;26.22;49.35
69187;BME280;56301;56.864;60.554;2023-10-13T01:00:08;97346.53;;;26.26;50.12
69187;BME280;56301;56.864;60.554;2023-10-13T01:02:31;97343.81;;;26.26;49.69
69187;BME280;56301;56.864;60.554;2023-10-13T01:04:53;97340.50;;;26.24;49.53
69187;BME280;56301;56.864;60.554;2023-10-13T01:07:16;97334.63;;;26.27;49.90
69187;BME280;56301;56.864;60.554;2023-10-13T01:09:42;97338.38;;;26.26;49.67
69187;BME280;56301;56.864;60.554;2023-10-13T01:12:04;97339.66;;;26.23;49.10
69187;BME280;56301;56.864;60.554;2023-10-13T01:14:27;97344.03;;;26.24;49.58
69187;BME280;56301;56.864;60.554;2023-10-13T01:16:49;97345.78;;;26.19;50.17
69187;BME280;56301;56.864;60.554;2023-10-13T01:19:13;97348.13;;;26.15;49.12
69187;BME280;56301;56.864;60.554;2023-10-13T01:21:35;97338.47;;;26.19;49.93
69187;BME280;56301;56.864;60.554;2023-10-13T01:23:58;97353.91;;;26.19;49.39
69187;BME280;56301;56.864;60.554;2023-10-13T01:26:20;97344.72;;;26.20;48.99
69187;BME280;56301;56.864;60.554;2023-10-13T01:28:43;97350.13;;;26.20;49.51
69187;BME280;56301;56.864;60.554;2023-10-13T01:31:05;97363.44;;;26.21;49.71
69187;BME280;56301;56.864;60.554;2023-10-13T01:33:28;97346.16;;;26.22;49.20
69187;BME280;56301;56.864;60.554;2023-10-13T01:35:50;97354.50;;;26.21;48.23
69187;BME280;56301;56.864;60.554;2023-10-13T01:38:15;97362.63;;;26.21;49.41
69187;BME280;56301;56.864;60.554;2023-10-13T01:40:38;97344.25;;;26.23;48.66
69187;BME280;56301;56.864;60.554;2023-10-13T01:43:01;97351.56;;;26.22;48.71
69187;BME280;56301;56.864;60.554;2023-10-13T01:45:23;97346.16;;;26.22;48.02
69187;BME280;56301;56.864;60.554;2023-10-13T01:47:45;97347.78;;;26.23;48.22
69187;BME280;56301;56.864;60.554;2023-10-13T01:50:08;97355.09;;;26.23;48.52
69187;BME280;56301;56.864;60.554;2023-10-13T01:52:30;97345.28;;;26.22;48.87
69187;BME280;56301;56.864;60.554;2023-10-13T01:54:53;97365.94;;;26.23;49.15
69187;BME280;56301;56.864;60.554;2023-10-13T01:57:15;97360.53;;;26.23;48.72
69187;BME280;56301;56.864;60.554;2023-10-13T01:59:41;97351.78;;;26.21;48.07
69187;BME280;56301;56.864;60.554;2023-10-13T02:02:04;97363.25;;;26.23;48.86
69187;BME280;56301;56.864;60.554;2023-10-13T02:04:27;97374.09;;;26.23;48.32
69187;BME280;56301;56.864;60.554;2023-10-13T02:06:50;97363.81;;;26.25;49.45
69187;BME280;56301;56.864;60.554;2023-10-13T02:09:12;97371.97;;;26.25;49.41
69187;BME280;56301;56.864;60.554;2023-10-13T02:11:35;97362.78;;;26.26;48.81
69187;BME280;56301;56.864;60.554;2023-10-13T02:13:58;97370.06;;;26.25;48.78
69187;BME280;56301;56.864;60.554;2023-10-13T02:16:20;97379.28;;;26.24;48.95
69187;BME280;56301;56.864;60.554;2023-10-13T02:18:43;97375.28;;;26.27;48.88
69187;BME280;56301;56.864;60.554;2023-10-13T02:21:05;97372.56;;;26.27;49.07
69187;BME280;56301;56.864;60.554;2023-10-13T02:23:27;97380.09;;;26.25;48.76
69187;BME280;56301;56.864;60.554;2023-10-13T02:25:50;97379.06;;;26.26;48.69
69187;BME280;56301;56.864;60.554;2023-10-13T02:28:13;97383.41;;;26.27;47.91
69187;BME280;56301;56.864;60.554;2023-10-13T02:30:39;97388.03;;;26.26;48.78
69187;BME280;56301;56.864;60.554;2023-10-13T02:33:02;97387.19;;;26.26;48.35
69187;BME280;56301;56.864;60.554;2023-10-13T02:35:24;97393.44;;;26.26;47.91
69187;BME280;56301;56.864;60.554;2023-10-13T02:37:46;97403.47;;;26.26;48.14
69187;BME280;56301;56.864;60.554;2023-10-13T02:40:10;97406.75;;;26.28;47.74
69187;BME280;56301;56.864;60.554;2023-10-13T02:42:33;97406.75;;;26.28;47.66
69187;BME280;56301;56.864;60.554;2023-10-13T02:44:55;97408.88;;;26.26;48.63
69187;BME280;56301;56.864;60.554;2023-10-13T02:47:18;97419.72;;;26.26;48.39
69187;BME280;56301;56.864;60.554;2023-10-13T02:49:41;97405.13;;;26.27;48.09
69187;BME280;56301;56.864;60.554;2023-10-13T02:52:03;97407.22;;;26.25;48.07
69187;BME280;56301;56.864;60.554;2023-10-13T02:54:25;97406.19;;;26.26;47.71
69187;BME280;56301;56.864;60.554;2023-10-13T02:56:48;97412.63;;;26.25;48.37
69187;BME280;56301;56.864;60.554;2023-10-13T02:59:10;97412.63;;;26.25;48.79
69187;BME280;56301;56.864;60.554;2023-10-13T03:01:33;97412.19;;;26.28;49.18
69187;BME280;56301;56.864;60.554;2023-10-13T03:03:55;97403.47;;;26.26;48.31
69187;BME280;56301;56.864;60.554;2023-10-13T03:06:18;97417.03;;;26.26;48.49
69187;BME280;56301;56.864;60.554;2023-10-13T03:08:40;97418.66;;;26.27;48.01
69187;BME280;56301;56.864;60.554;2023-10-13T03:11:03;97424.09;;;26.27;48.01
69187;BME280;56301;56.864;60.554;2023-10-13T03:13:25;97421.38;;;26.27;48.09
69187;BME280;56301;56.864;60.554;2023-10-13T03:15:47;97420.56;;;26.26;48.04
69187;BME280;56301;56.864;60.554;2023-10-13T03:18:10;97425.97;;;26.26;47.82
69187;BME280;56301;56.864;60.554;2023-10-13T03:20:32;97430.56;;;26.26;47.69
69187;BME280;56301;56.864;60.554;2023-10-13T03:22:55;97436.00;;;26.26;48.41
69187;BME280;56301;56.864;60.554;2023-10-13T03:25:17;97426.19;;;26.25;48.15
69187;BME280;56301;56.864;60.554;2023-10-13T03:27:40;97436.81;;;26.26;48.33
69187;BME280;56301;56.864;60.554;2023-10-13T03:30:03;97436.00;;;26.26;47.90
69187;BME280;56301;56.864;60.554;2023-10-13T03:32:25;97432.22;;;26.27;48.56
69187;BME280;56301;56.864;60.554;2023-10-13T03:34:47;97441.41;;;26.26;47.70
69187;BME280;56301;56.864;60.554;2023-10-13T03:37:10;97438.72;;;26.26;48.68
69187;BME280;56301;56.864;60.554;2023-10-13T03:39:32;97433.66;;;26.29;48.79
69187;BME280;56301;56.864;60.554;2023-10-13T03:41:58;97442.84;;;26.28;48.93
69187;BME280;56301;56.864;60.554;2023-10-13T03:44:20;97434.03;;;26.33;48.11
69187;BME280;56301;56.864;60.554;2023-10-13T03:46:43;97431.31;;;26.33;47.46
69187;BME280;56301;56.864;60.554;2023-10-13T03:49:05;97439.28;;;26.28;48.09
69187;BME280;56301;56.864;60.554;2023-10-13T03:51:27;97449.56;;;26.26;47.61
69187;BME280;56301;56.864;60.554;2023-10-13T03:53:50;97439.16;;;26.23;48.13
69187;BME280;56301;56.864;60.554;2023-10-13T03:56:12;97441.88;;;26.23;47.83
69187;BME280;56301;56.864;60.554;2023-10-13T03:58:35;97449.56;;;26.26;47.51
69187;BME280;56301;56.864;60.554;2023-10-13T04:00:58;97445.16;;;26.25;47.68
69187;BME280;56301;56.864;60.554;2023-10-13T04:03:20;97434.75;;;26.22;47.41
69187;BME280;56301;56.864;60.554;2023-10-13T04:05:43;97436.06;;;26.19;47.37
69187;BME280;56301;56.864;60.554;2023-10-13T04:08:06;97437.34;;;26.16;48.31
69187;BME280;56301;56.864;60.554;2023-10-13T04:10:28;97444.41;;;26.17;47.69
69187;BME280;56301;56.864;60.554;2023-10-13T04:12:51;97446.91;;;26.19;48.16
69187;BME280;56301;56.864;60.554;2023-10-13T04:15:13;97437.56;;;26.15;48.30
69187;BME280;56301;56.864;60.554;2023-10-13T04:17:36;97442.75;;;26.16;48.49
69187;BME280;56301;56.864;60.554;2023-10-13T04:19:58;97436.13;;;26.12;48.66
69187;BME280;56301;56.864;60.554;2023-10-13T04:22:21;97444.88;;;26.14;47.22
69187;BME280;56301;56.864;60.554;2023-10-13T04:24:43;97448.63;;;26.13;48.36
69187;BME280;56301;56.864;60.554;2023-10-13T04:27:06;97450.50;;;26.13;48.61
69187;BME280;56301;56.864;60.554;2023-10-13T04:29:28;97451.78;;;26.10;48.31
69187;BME280;56301;56.864;60.554;2023-10-13T04:31:54;97449.69;;;26.12;47.90
69187;BME280;56301;56.864;60.554;2023-10-13T04:34:17;97445.31;;;26.11;47.98
69187;BME280;56301;56.864;60.554;2023-10-13T04:36:39;97453.66;;;26.10;47.52
69187;BME280;56301;56.864;60.554;2023-10-13T04:39:02;97447.22;;;26.11;48.30
69187;BME280;56301;56.864;60.554;2023-10-13T04:41:28;97466.41;;;26.09;48.13
69187;BME280;56301;56.864;60.554;2023-10-13T04:43:51;97456.63;;;26.08;47.39
69187;BME280;56301;56.864;60.554;2023-10-13T04:46:14;97465.81;;;26.07;48.14
69187;BME280;56301;56.864;60.554;2023-10-13T04:48:36;97451.41;;;26.07;48.49
69187;BME280;56301;56.864;60.554;2023-10-13T04:50:59;97457.88;;;26.06;48.19
69187;BME280;56301;56.864;60.554;2023-10-13T04:53:22;97463.31;;;26.06;47.93
69187;BME280;56301;56.864;60.554;2023-10-13T04:55:48;97451.69;;;25.99;47.82
69187;BME280;56301;56.864;60.554;2023-10-13T04:58:11;97463.31;;;26.06;47.85
69187;BME280;56301;56.864;60.554;2023-10-13T05:00:33;97472.25;;;26.06;48.09
69187;BME280;56301;56.864;60.554;2023-10-13T05:02:55;97477.69;;;26.06;48.37
69187;BME280;56301;56.864;60.554;2023-10-13T05:05:18;97478.75;;;26.05;47.44
69187;BME280;56301;56.864;60.554;2023-10-13T05:07:41;97487.13;;;26.04;47.34
69187;BME280;56301;56.864;60.554;2023-10-13T05:10:05;97488.75;;;26.05;48.08
69187;BME280;56301;56.864;60.554;2023-10-13T05:12:27;97484.59;;;26.02;47.75
69187;BME280;56301;56.864;60.554;2023-10-13T05:14:50;97483.53;;;26.03;47.70
69187;BME280;56301;56.864;60.554;2023-10-13T05:17:12;97484.59;;;26.02;48.14
69187;BME280;56301;56.864;60.554;2023-10-13T05:19:35;97490.84;;;26.03;48.44
69187;BME280;56301;56.864;60.554;2023-10-13T05:21:57;97488.13;;;26.03;47.25
69187;BME280;56301;56.864;60.554;2023-10-13T05:24:19;97476.72;;;26.01;48.54
69187;BME280;56301;56.864;60.554;2023-10-13T05:26:42;97493.34;;;26.04;47.42
69187;BME280;56301;56.864;60.554;2023-10-13T05:29:04;97490.84;;;26.03;48.16
69187;BME280;56301;56.864;60.554;2023-10-13T05:31:27;97489.19;;;26.02;48.07
69187;BME280;56301;56.864;60.554;2023-10-13T05:33:49;97494.84;;;26.00;48.07
69187;BME280;56301;56.864;60.554;2023-10-13T05:36:12;97490.47;;;25.99;47.53
69187;BME280;56301;56.864;60.554;2023-10-13T05:38:34;97494.84;;;26.00;47.34
69187;BME280;56301;56.864;60.554;2023-10-13T05:40:58;97490.47;;;25.99;48.38
69187;BME280;56301;56.864;60.554;2023-10-13T05:43:21;97493.19;;;25.99;47.86
69187;BME280;56301;56.864;60.554;2023-10-13T05:45:43;97485.03;;;25.99;47.68
69187;BME280;56301;56.864;60.554;2023-10-13T05:48:06;97505.91;;;25.99;47.12
69187;BME280;56301;56.864;60.554;2023-10-13T05:50:28;97511.31;;;25.99;47.98
69187;BME280;56301;56.864;60.554;2023-10-13T05:52:51;97500.47;;;25.99;47.79
69187;BME280;56301;56.864;60.554;2023-10-13T05:55:13;97504.84;;;26.00;47.41
69187;BME280;56301;56.864;60.554;2023-10-13T05:57:36;97509.44;;;25.99;48.23
69187;BME280;56301;56.864;60.554;2023-10-13T05:59:58;97506.97;;;25.98;47.44
69187;BME280;56301;56.864;60.554;2023-10-13T06:02:21;97520.53;;;25.98;47.83
69187;BME280;56301;56.864;60.554;2023-10-13T06:04:44;97510.50;;;25.98;48.37
69187;BME280;56301;56.864;60.554;2023-10-13T06:07:06;97518.63;;;25.98;47.54
69187;BME280;56301;56.864;60.554;2023-10-13T06:09:29;97522.16;;;25.99;48.21
69187;BME280;56301;56.864;60.554;2023-10-13T06:11:51;97508.84;;;25.97;48.12
69187;BME280;56301;56.864;60.554;2023-10-13T06:14:14;97506.72;;;25.99;47.42
69187;BME280;56301;56.864;60.554;2023-10-13T06:16:36;97507.78;;;25.98;46.98
69187;BME280;56301;56.864;60.554;2023-10-13T06:18:59;97516.34;;;25.95;48.23
69187;BME280;56301;56.864;60.554;2023-10-13T06:21:21;97508.84;;;25.97;47.55
69187;BME280;56301;56.864;60.554;2023-10-13T06:23:44;97510.50;;;25.98;48.07
69187;BME280;56301;56.864;60.554;2023-10-13T06:26:06;97520.53;;;25.98;48.27
69187;BME280;56301;56.864;60.554;2023-10-13T06:28:29;97521.56;;;25.97;47.30
69187;BME280;56301;56.864;60.554;2023-10-13T06:30:58;97519.69;;;25.97;47.99
69187;BME280;56301;56.864;60.554;2023-10-13T06:33:21;97512.38;;;25.98;47.72
69187;BME280;56301;56.864;60.554;2023-10-13T06:35:49;97498.00;;;25.97;48.33
69187;BME280;56301;56.864;60.554;2023-10-13T06:38:11;97530.53;;;25.97;47.60
69187;BME280;56301;56.864;60.554;2023-10-13T06:40:34;97505.09;;;25.98;48.23
69187;BME280;56301;56.864;60.554;2023-10-13T06:42:56;97514.84;;;25.99;47.57
69187;BME280;56301;56.864;60.554;2023-10-13T06:45:19;97512.78;;;26.01;48.17
69187;BME280;56301;56.864;60.554;2023-10-13T06:47:41;97508.41;;;26.00;48.15
69187;BME280;56301;56.864;60.554;2023-10-13T06:50:04;97530.09;;;26.00;48.28
69187;BME280;56301;56.864;60.554;2023-10-13T06:52:26;97503.81;;;26.01;47.96
69187;BME280;56301;56.864;60.554;2023-10-13T06:54:52;97501.31;;;25.99;48.28
69187;BME280;56301;56.864;60.554;2023-10-13T06:57:14;97504.63;;;26.01;48.54
69187;BME280;56301;56.864;60.554;2023-10-13T06:59:36;97511.72;;;26.02;47.55
69187;BME280;56301;56.864;60.554;2023-10-13T07:01:59;97504.63;;;26.01;48.54
69187;BME280;56301;56.864;60.554;2023-10-13T07:04:21;97495.88;;;25.99;47.82
69187;BME280;56301;56.864;60.554;2023-10-13T07:06:44;97512.97;;;26.00;48.45
69187;BME280;56301;56.864;60.554;2023-10-13T07:09:06;97511.94;;;26.01;47.85
69187;BME280;56301;56.864;60.554;2023-10-13T07:11:29;97497.56;;;26.00;47.93
69187;BME280;56301;56.864;60.554;2023-10-13T07:13:51;97499.66;;;25.98;48.04
69187;BME280;56301;56.864;60.554;2023-10-13T07:16:14;97513.84;;;26.00;48.01
69187;BME280;56301;56.864;60.554;2023-10-13T07:18:36;97503.00;;;26.00;49.06
69187;BME280;56301;56.864;60.554;2023-10-13T07:20:58;97504.03;;;25.99;47.96
69187;BME280;56301;56.864;60.554;2023-10-13T07:23:21;97504.63;;;26.01;49.07
69187;BME280;56301;56.864;60.554;2023-10-13T07:25:53;97500.88;;;26.02;48.27
69187;BME280;56301;56.864;60.554;2023-10-13T07:28:16;97507.34;;;26.01;49.09
69187;BME280;56301;56.864;60.554;2023-10-13T07:30:38;97509.25;;;26.01;48.46
69187;BME280;56301;56.864;60.554;2023-10-13T07:33:01;97513.84;;;26.00;48.90
69187;BME280;56301;56.864;60.554;2023-10-13T07:35:23;97501.31;;;25.99;48.87
69187;BME280;56301;56.864;60.554;2023-10-13T07:37:48;97510.50;;;25.98;48.77
69187;BME280;56301;56.864;60.554;2023-10-13T07:40:11;97512.16;;;25.99;48.95
69187;BME280;56301;56.864;60.554;2023-10-13T07:42:33;97507.16;;;25.96;49.27
69187;BME280;56301;56.864;60.554;2023-10-13T07:44:56;97494.47;;;25.97;48.81
69187;BME280;56301;56.864;60.554;2023-10-13T07:47:19;97491.97;;;25.95;48.10
69187;BME280;56301;56.864;60.554;2023-10-13T07:49:41;97488.19;;;25.96;49.18
69187;BME280;56301;56.864;60.554;2023-10-13T07:52:07;97503.44;;;25.97;48.44
69187;BME280;56301;56.864;60.554;2023-10-13T07:54:30;97499.91;;;25.97;48.43
69187;BME280;56301;56.864;60.554;2023-10-13T07:56:52;97501.75;;;25.96;49.12
69187;BME280;56301;56.864;60.554;2023-10-13T07:59:15;97495.50;;;25.96;48.79
69187;BME280;56301;56.864;60.554;2023-10-13T08:01:37;97509.06;;;25.96;48.71
69187;BME280;56301;56.864;60.554;2023-10-13T08:04:00;97503.25;;;25.92;47.97
69187;BME280;56301;56.864;60.554;2023-10-13T08:06:22;97498.66;;;25.92;48.41
69187;BME280;56301;56.864;60.554;2023-10-13T08:08:45;97507.63;;;25.93;47.89
69187;BME280;56301;56.864;60.554;2023-10-13T08:11:14;97500.53;;;25.92;48.58
69187;BME280;56301;56.864;60.554;2023-10-13T08:13:39;97507.63;;;25.93;47.91
69187;BME280;56301;56.864;60.554;2023-10-13T08:16:03;97508.06;;;25.90;48.32
69187;BME280;56301;56.864;60.554;2023-10-13T08:18:25;97502.41;;;25.91;48.80
69187;BME280;56301;56.864;60.554;2023-10-13T08:20:48;97511.38;;;25.92;47.82
69187;BME280;56301;56.864;60.554;2023-10-13T08:23:10;97511.81;;;25.89;48.36
69187;BME280;56301;56.864;60.554;2023-10-13T08:25:33;97507.03;;;25.91;48.19
69187;BME280;56301;56.864;60.554;2023-10-13T08:27:55;97517.22;;;25.89;48.70
69187;BME280;56301;56.864;60.554;2023-10-13T08:30:18;97521.84;;;25.88;47.86
69187;BME280;56301;56.864;60.554;2023-10-13T08:32:40;97517.22;;;25.89;48.57
69187;BME280;56301;56.864;60.554;2023-10-13T08:35:03;97518.09;;;25.89;47.60
69187;BME280;56301;56.864;60.554;2023-10-13T08:37:25;97519.34;;;25.87;47.92
69187;BME280;56301;56.864;60.554;2023-10-13T08:39:49;97526.44;;;25.88;48.63
69187;BME280;56301;56.864;60.554;2023-10-13T08:42:11;97527.25;;;25.88;48.70
69187;BME280;56301;56.864;60.554;2023-10-13T08:44:34;97513.94;;;25.87;48.70
69187;BME280;56301;56.864;60.554;2023-10-13T08:46:56;97519.34;;;25.87;48.78
69187;BME280;56301;56.864;60.554;2023-10-13T08:49:19;97503.09;;;25.87;48.33
69187;BME280;56301;56.864;60.554;2023-10-13T08:51:42;97503.09;;;25.87;48.45
69187;BME280;56301;56.864;60.554;2023-10-13T08:54:04;97511.81;;;25.89;47.71
69187;BME280;56301;56.864;60.554;2023-10-13T08:56:27;97513.13;;;25.86;48.23
69187;BME280;56301;56.864;60.554;2023-10-13T08:58:49;97513.31;;;25.85;47.80
69187;BME280;56301;56.864;60.554;2023-10-13T09:01:12;97506.00;;;25.85;48.36
69187;BME280;56301;56.864;60.554;2023-10-13T09:03:35;97509.78;;;25.84;48.48
69187;BME280;56301;56.864;60.554;2023-10-13T09:05:58;97502.72;;;25.83;48.00
69187;BME280;56301;56.864;60.554;2023-10-13T09:08:27;97503.53;;;25.84;48.47
69187;BME280;56301;56.864;60.554;2023-10-13T09:10:49;97497.06;;;25.85;47.94
69187;BME280;56301;56.864;60.554;2023-10-13T09:13:12;97508.94;;;25.84;48.28
69187;BME280;56301;56.864;60.554;2023-10-13T09:15:34;97508.94;;;25.84;48.23
69187;BME280;56301;56.864;60.554;2023-10-13T09:17:57;97501.06;;;25.82;48.40
69187;BME280;56301;56.864;60.554;2023-10-13T09:20:29;97486.69;;;25.82;47.66
69187;BME280;56301;56.864;60.554;2023-10-13T09:22:53;97495.63;;;25.82;47.71
69187;BME280;56301;56.864;60.554;2023-10-13T09:25:15;97499.38;;;25.81;46.84
69187;BME280;56301;56.864;60.554;2023-10-13T09:27:43;97517.53;;;25.81;48.00
69187;BME280;56301;56.864;60.554;2023-10-13T09:30:06;97514.81;;;25.81;47.42
69187;BME280;56301;56.864;60.554;2023-10-13T09:32:28;97515.88;;;25.80;48.13
69187;BME280;56301;56.864;60.554;2023-10-13T09:34:51;97515.63;;;25.81;47.07
69187;BME280;56301;56.864;60.554;2023-10-13T09:37:13;97502.94;;;25.82;47.98
69187;BME280;56301;56.864;60.554;2023-10-13T09:39:36;97506.91;;;25.79;47.71
69187;BME280;56301;56.864;60.554;2023-10-13T09:41:58;97501.25;;;25.81;46.79
69187;BME280;56301;56.864;60.554;2023-10-13T09:44:21;97492.72;;;25.77;47.10
69187;BME280;56301;56.864;60.554;2023-10-13T09:46:43;97499.38;;;25.81;47.12
69187;BME280;56301;56.864;60.554;2023-10-13T09:49:13;97502.31;;;25.80;47.41
69187;BME280;56301;56.864;60.554;2023-10-13T09:51:35;97503.38;;;25.79;47.65
69187;BME280;56301;56.864;60.554;2023-10-13T09:54:00;97485.03;;;25.74;47.03
69187;BME280;56301;56.864;60.554;2023-10-13T09:56:28;97507.31;;;25.83;47.03
69187;BME280;56301;56.864;60.554;2023-10-13T09:58:53;97508.81;;;25.79;47.71
69187;BME280;56301;56.864;60.554;2023-10-13T10:01:19;97504.38;;;25.78;47.42
69187;BME280;56301;56.864;60.554;2023-10-13T10:03:45;97512.34;;;25.79;47.74
69187;BME280;56301;56.864;60.554;2023-10-13T10:06:07;97510.66;;;25.78;47.15
69187;BME280;56301;56.864;60.554;2023-10-13T10:08:30;97511.50;;;25.79;47.36
69187;BME280;56301;56.864;60.554;2023-10-13T10:11:00;97514.22;;;25.79;47.42
69187;BME280;56301;56.864;60.554;2023-10-13T10:13:43;97513.16;;;25.80;47.40
69187;BME280;56301;56.864;60.554;2023-10-13T10:16:12;97522.34;;;25.79;47.05
69187;BME280;56301;56.864;60.554;2023-10-13T10:18:38;97525.22;;;25.77;47.42
69187;BME280;56301;56.864;60.554;2023-10-13T10:21:04;97522.53;;;25.77;47.41
69187;BME280;56301;56.864;60.554;2023-10-13T10:23:27;97508.16;;;25.77;47.12
69187;BME280;56301;56.864;60.554;2023-10-13T10:25:49;97505.44;;;25.77;47.36
69187;BME280;56301;56.864;60.554;2023-10-13T10:28:12;97504.38;;;25.78;47.27
69187;BME280;56301;56.864;60.554;2023-10-13T10:30:38;97507.09;;;25.78;46.85
69187;BME280;56301;56.864;60.554;2023-10-13T10:33:01;97501.66;;;25.78;47.50
69187;BME280;56301;56.864;60.554;2023-10-13T10:35:23;97505.22;;;25.78;47.38
69187;BME280;56301;56.864;60.554;2023-10-13T10:37:46;97509.78;;;25.78;47.77
69187;BME280;56301;56.864;60.554;2023-10-13T10:40:09;97522.75;;;25.76;47.21
69187;BME280;56301;56.864;60.554;2023-10-13T10:42:31;97507.09;;;25.78;47.52
69187;BME280;56301;56.864;60.554;2023-10-13T10:44:54;97503.78;;;25.76;46.51
69187;BME280;56301;56.864;60.554;2023-10-13T10:47:16;97506.50;;;25.76;47.17
69187;BME280;56301;56.864;60.554;2023-10-13T10:49:38;97509.19;;;25.76;46.71
69187;BME280;56301;56.864;60.554;2023-10-13T10:52:01;97502.72;;;25.77;47.01
69187;BME280;56301;56.864;60.554;2023-10-13T10:54:24;97489.41;;;25.75;47.06
69187;BME280;56301;56.864;60.554;2023-10-13T10:56:46;97485.88;;;25.75;47.44
69187;BME280;56301;56.864;60.554;2023-10-13T10:59:09;97469.00;;;25.73;46.74
69187;BME280;56301;56.864;60.554;2023-10-13T11:01:31;97471.47;;;25.74;47.58
69187;BME280;56301;56.864;60.554;2023-10-13T11:06:16;97476.06;;;25.74;46.37
69187;BME280;56301;56.864;60.554;2023-10-13T11:08:39;97499.44;;;25.75;46.74
69187;BME280;56301;56.864;60.554;2023-10-13T11:11:01;97512.13;;;25.74;46.54
69187;BME280;56301;56.864;60.554;2023-10-13T11:13:24;97498.56;;;25.74;46.62
69187;BME280;56301;56.864;60.554;2023-10-13T11:15:46;97491.31;;;25.75;46.25
69187;BME280;56301;56.864;60.554;2023-10-13T11:18:09;97495.03;;;25.74;46.45
69187;BME280;56301;56.864;60.554;2023-10-13T11:20:32;97484.63;;;25.70;46.84
69187;BME280;56301;56.864;60.554;2023-10-13T11:22:54;97489.63;;;25.74;46.44
69187;BME280;56301;56.864;60.554;2023-10-13T11:25:20;97505.03;;;25.73;47.03
69187;BME280;56301;56.864;60.554;2023-10-13T11:27:43;97494.00;;;25.75;45.96
69187;BME280;56301;56.864;60.554;2023-10-13T11:30:06;97504.22;;;25.73;46.82
69187;BME280;56301;56.864;60.554;2023-10-13T11:32:29;97514.00;;;25.74;46.65
69187;BME280;56301;56.864;60.554;2023-10-13T11:34:51;97516.94;;;25.72;46.70
69187;BME280;56301;56.864;60.554;2023-10-13T11:37:14;97517.78;;;25.73;47.19
69187;BME280;56301;56.864;60.554;2023-10-13T11:39:37;97518.59;;;25.73;46.25
69187;BME280;56301;56.864;60.554;2023-10-13T11:42:00;97506.94;;;25.73;46.54
69187;BME280;56301;56.864;60.554;2023-10-13T11:44:22;97507.38;;;25.69;47.21
69187;BME280;56301;56.864;60.554;2023-10-13T11:46:45;97489.47;;;25.68;47.07
69187;BME280;56301;56.864;60.554;2023-10-13T11:49:08;97494.66;;;25.70;46.19
69187;BME280;56301;56.864;60.554;2023-10-13T11:51:31;97499.88;;;25.72;47.13
69187;BME280;56301;56.864;60.554;2023-10-13T11:53:54;97503.59;;;25.70;46.95
69187;BME280;56301;56.864;60.554;2023-10-13T11:56:16;97509.03;;;25.70;45.97
69187;BME280;56301;56.864;60.554;2023-10-13T11:58:39;97518.22;;;25.69;46.59
69187;BME280;56301;56.864;60.554;2023-10-13T12:01:02;97529.66;;;25.72;46.84
69187;BME280;56301;56.864;60.554;2023-10-13T12:03:24;97511.97;;;25.69;46.84
69187;BME280;56301;56.864;60.554;2023-10-13T12:05:47;97517.63;;;25.67;46.60
69187;BME280;56301;56.864;60.554;2023-10-13T12:08:09;97510.06;;;25.69;46.70
69187;BME280;56301;56.864;60.554;2023-10-13T12:10:31;97525.50;;;25.69;46.81
69187;BME280;56301;56.864;60.554;2023-10-13T12:12:54;97525.50;;;25.69;46.96
69187;BME280;56301;56.864;60.554;2023-10-13T12:15:16;97513.22;;;25.66;46.83
69187;BME280;56301;56.864;60.554;2023-10-13T12:17:39;97513.84;;;25.68;46.64
69187;BME280;56301;56.864;60.554;2023-10-13T12:20:02;97518.63;;;25.66;45.83
69187;BME280;56301;56.864;60.554;2023-10-13T12:22:25;97520.09;;;25.69;45.96
69187;BME280;56301;56.864;60.554;2023-10-13T12:24:47;97523.22;;;25.66;46.72
69187;BME280;56301;56.864;60.554;2023-10-13T12:27:10;97509.50;;;25.67;46.06
69187;BME280;56301;56.864;60.554;2023-10-13T12:29:32;97525.75;;;25.67;45.80